createdAt,value
2017-08-15T00:02:05.418Z,6.80
2017-08-15T00:04:31.697Z,6.40
2017-08-15T00:06:58.993Z,6.30
2017-08-15T00:09:27.424Z,5.80
2017-08-15T00:11:54.706Z,7.33
2017-08-15T00:14:21.655Z,6.53
2017-08-15T00:16:49.151Z,6.37
2017-08-15T00:19:16.039Z,6.13
2017-08-15T00:21:43.229Z,6.27
2017-08-15T00:24:10.136Z,5.60
2017-08-15T00:26:37.365Z,6.97
2017-08-15T00:29:03.637Z,5.87
2017-08-15T00:31:29.931Z,6.50
2017-08-15T00:33:56.209Z,7.20
2017-08-15T00:36:22.508Z,6.13
2017-08-15T00:38:49.180Z,6.10
2017-08-15T00:41:15.448Z,6.33
2017-08-15T00:43:41.753Z,6.17
2017-08-15T00:46:08.058Z,5.80
2017-08-15T00:48:34.359Z,5.70
2017-08-15T00:51:00.651Z,5.83
2017-08-15T00:53:26.938Z,6.97
2017-08-15T00:55:53.226Z,5.50
2017-08-15T00:58:19.549Z,5.93
2017-08-15T01:00:45.854Z,7.20
2017-08-15T01:03:12.167Z,5.73
2017-08-15T01:05:38.454Z,5.30
2017-08-15T01:08:04.754Z,6.47
2017-08-15T01:10:31.048Z,7.67
2017-08-15T01:12:57.301Z,6.33
2017-08-15T01:15:23.605Z,6.20
2017-08-15T01:17:49.869Z,5.80
2017-08-15T01:20:16.227Z,11.10
2017-08-15T01:22:42.504Z,6.30
2017-08-15T01:25:08.792Z,6.53
2017-08-15T01:27:35.066Z,7.03
2017-08-15T01:30:01.317Z,6.60
2017-08-15T01:32:27.610Z,6.10
2017-08-15T01:34:53.856Z,5.43
2017-08-15T01:37:20.158Z,5.10
2017-08-15T01:39:46.480Z,5.70
2017-08-15T01:42:13.138Z,11.43
2017-08-15T01:44:39.388Z,6.57
2017-08-15T01:47:05.665Z,6.17
2017-08-15T01:49:31.966Z,6.20
2017-08-15T01:51:58.223Z,5.80
2017-08-15T01:54:24.528Z,6.87
2017-08-15T01:56:50.795Z,6.80
2017-08-15T01:59:17.078Z,7.63
2017-08-15T02:01:43.360Z,8.97
2017-08-15T02:04:10.021Z,7.10
2017-08-15T02:06:36.328Z,6.83
2017-08-15T02:09:02.657Z,5.93
2017-08-15T02:11:28.922Z,7.10
2017-08-15T02:13:55.587Z,6.50
2017-08-15T02:16:21.841Z,6.43
2017-08-15T02:18:48.112Z,6.50
2017-08-15T02:21:14.401Z,5.55
2017-08-15T02:23:41.033Z,6.23
2017-08-15T02:26:07.292Z,6.67
2017-08-15T02:28:33.541Z,6.40
2017-08-15T02:30:59.839Z,5.47
2017-08-15T02:33:26.105Z,5.40
2017-08-15T02:35:52.409Z,13.45
2017-08-15T02:38:18.684Z,6.90
2017-08-15T02:40:45.247Z,7.78
2017-08-15T02:43:11.550Z,7.53
2017-08-15T02:45:37.825Z,6.60
2017-08-15T02:48:04.102Z,6.30
2017-08-15T02:50:30.420Z,7.10
2017-08-15T02:52:56.718Z,6.80
2017-08-15T02:55:22.979Z,6.43
2017-08-15T02:57:49.260Z,6.87
2017-08-15T03:00:15.538Z,7.63
2017-08-15T03:02:42.110Z,6.93
2017-08-15T03:05:08.398Z,6.75
2017-08-15T03:07:34.652Z,7.00
2017-08-15T03:10:00.944Z,9.02
2017-08-15T03:12:27.222Z,9.65
2017-08-15T03:14:53.522Z,6.20
2017-08-15T03:17:19.789Z,7.85
2017-08-15T03:19:46.069Z,8.57
2017-08-15T03:22:12.365Z,6.20
2017-08-15T03:24:38.976Z,6.40
2017-08-15T03:27:05.238Z,7.10
2017-08-15T03:29:31.484Z,6.20
2017-08-15T03:31:58.457Z,6.28
2017-08-15T03:34:24.741Z,5.93
2017-08-15T03:36:51.081Z,5.97
2017-08-15T03:39:17.353Z,7.77
2017-08-15T03:41:43.636Z,6.40
2017-08-15T03:44:09.893Z,7.00
2017-08-15T03:46:36.170Z,6.67
2017-08-15T03:49:02.838Z,7.20
2017-08-15T03:51:29.678Z,6.80
2017-08-15T03:53:55.953Z,6.93
2017-08-15T03:56:22.232Z,6.97
2017-08-15T03:58:48.512Z,5.73
2017-08-15T04:01:14.791Z,6.83
2017-08-15T04:03:41.077Z,6.43
2017-08-15T04:06:07.347Z,6.60
2017-08-15T04:08:33.643Z,7.40
2017-08-15T04:10:59.942Z,6.60
2017-08-15T04:13:26.233Z,6.13
2017-08-15T04:15:52.492Z,6.77
2017-08-15T04:18:18.783Z,6.43
2017-08-15T04:20:45.074Z,6.13
2017-08-15T04:23:11.333Z,6.83
2017-08-15T04:25:37.620Z,6.53
2017-08-15T04:28:03.885Z,6.93
2017-08-15T04:30:30.841Z,5.80
2017-08-15T04:32:57.099Z,6.60
2017-08-15T04:35:23.379Z,6.60
2017-08-15T04:37:49.673Z,7.20
2017-08-15T04:40:15.961Z,10.33
2017-08-15T04:42:42.248Z,6.97
2017-08-15T04:45:08.526Z,7.20
2017-08-15T04:47:34.808Z,7.57
2017-08-15T04:50:01.073Z,7.23
2017-08-15T04:52:27.366Z,6.33
2017-08-15T04:54:53.652Z,6.33
2017-08-15T04:57:19.916Z,6.70
2017-08-15T04:59:47.137Z,6.83
2017-08-15T05:02:13.827Z,7.43
2017-08-15T05:04:40.112Z,7.27
2017-08-15T05:07:06.386Z,8.80
2017-08-15T05:09:32.680Z,6.83
2017-08-15T05:11:58.972Z,8.00
2017-08-15T05:14:25.247Z,7.53
2017-08-15T05:16:51.557Z,8.13
2017-08-15T05:19:17.827Z,7.93
2017-08-15T05:21:44.089Z,8.60
2017-08-15T05:24:10.394Z,7.53
2017-08-15T05:26:36.646Z,7.50
2017-08-15T05:29:03.297Z,7.90
2017-08-15T05:31:29.577Z,8.60
2017-08-15T05:33:55.846Z,8.70
2017-08-15T05:36:22.153Z,7.00
2017-08-15T05:38:48.424Z,8.20
2017-08-15T05:41:14.712Z,8.93
2017-08-15T05:43:40.981Z,8.80
2017-08-15T05:46:07.274Z,9.73
2017-08-15T05:48:33.908Z,12.33
2017-08-15T05:51:00.199Z,9.60
2017-08-15T05:53:26.513Z,9.27
2017-08-15T05:55:52.788Z,8.60
2017-08-15T05:58:19.095Z,9.73
2017-08-15T06:00:45.349Z,9.43
2017-08-15T06:03:11.657Z,10.23
2017-08-15T06:05:37.935Z,9.80
2017-08-15T06:08:04.195Z,9.73
2017-08-15T06:10:30.475Z,10.00
2017-08-15T06:12:56.743Z,10.57
2017-08-15T06:15:23.052Z,9.40
2017-08-15T06:17:49.709Z,9.10
2017-08-15T06:20:16.021Z,10.93
2017-08-15T06:22:42.296Z,10.30
2017-08-15T06:25:08.582Z,10.97
2017-08-15T06:27:34.930Z,11.37
2017-08-15T06:30:01.205Z,10.97
2017-08-15T06:32:27.491Z,11.60
2017-08-15T06:34:53.751Z,10.03
2017-08-15T06:37:20.082Z,12.07
2017-08-15T06:39:46.350Z,11.07
2017-08-15T06:42:12.664Z,10.77
2017-08-15T06:44:39.853Z,12.70
2017-08-15T06:47:06.569Z,11.30
2017-08-15T06:49:32.843Z,11.53
2017-08-15T06:51:59.226Z,11.77
2017-08-15T06:54:25.560Z,11.90
2017-08-15T06:56:52.221Z,13.07
2017-08-15T06:59:18.500Z,12.87
2017-08-15T07:01:44.789Z,12.97
2017-08-15T07:04:11.089Z,12.50
2017-08-15T07:06:37.724Z,12.93
2017-08-15T07:09:04.017Z,11.77
2017-08-15T07:11:30.294Z,13.73
2017-08-15T07:13:56.921Z,14.13
2017-08-15T07:16:23.201Z,14.07
2017-08-15T07:18:49.474Z,14.00
2017-08-15T07:21:16.128Z,11.90
2017-08-15T07:23:42.393Z,12.50
2017-08-15T07:26:08.737Z,12.17
2017-08-15T07:28:35.005Z,13.00
2017-08-15T07:31:01.676Z,11.87
2017-08-15T07:33:27.984Z,12.43
2017-08-15T07:35:54.396Z,11.57
2017-08-15T07:38:20.677Z,10.97
2017-08-15T07:40:46.954Z,12.37
2017-08-15T07:43:13.249Z,9.83
2017-08-15T07:45:39.581Z,11.83
2017-08-15T07:48:06.150Z,10.70
2017-08-15T07:50:32.443Z,11.93
2017-08-15T07:52:58.716Z,10.80
2017-08-15T07:55:25.071Z,11.60
2017-08-15T07:57:51.351Z,11.00
2017-08-15T08:00:17.648Z,8.90
2017-08-15T08:02:43.921Z,8.90
2017-08-15T08:05:10.231Z,9.93
2017-08-15T08:07:36.491Z,9.70
2017-08-15T08:10:03.144Z,8.53
2017-08-15T08:12:29.854Z,10.57
2017-08-15T08:14:56.125Z,8.33
2017-08-15T08:17:22.430Z,7.83
2017-08-15T08:19:49.058Z,8.07
2017-08-15T08:22:15.365Z,7.70
2017-08-15T08:24:41.604Z,8.73
2017-08-15T08:27:07.891Z,7.50
2017-08-15T08:29:34.176Z,7.67
2017-08-15T08:32:00.860Z,8.30
2017-08-15T08:34:27.145Z,7.63
2017-08-15T08:36:53.738Z,7.97
2017-08-15T08:39:20.026Z,11.43
2017-08-15T08:41:46.299Z,7.27
2017-08-15T08:44:12.582Z,7.60
2017-08-15T08:46:39.220Z,7.60
2017-08-15T08:49:05.907Z,7.53
2017-08-15T08:51:32.171Z,7.70
2017-08-15T08:53:58.505Z,7.17
2017-08-15T08:56:24.756Z,7.37
2017-08-15T08:58:51.732Z,5.93
2017-08-15T09:01:18.047Z,7.13
2017-08-15T09:03:44.350Z,6.60
2017-08-15T09:06:10.645Z,6.90
2017-08-15T09:08:36.946Z,6.73
2017-08-15T09:11:03.802Z,7.20
2017-08-15T09:13:30.057Z,9.47
2017-08-15T09:15:56.362Z,7.37
2017-08-15T09:18:22.636Z,6.20
2017-08-15T09:20:49.887Z,6.97
2017-08-15T09:23:16.504Z,7.93
2017-08-15T09:25:42.773Z,6.73
2017-08-15T09:28:09.095Z,6.90
2017-08-15T09:30:35.372Z,9.10
2017-08-15T09:33:01.674Z,5.17
2017-08-15T09:35:27.912Z,6.47
2017-08-15T09:37:54.189Z,5.63
2017-08-15T09:40:20.461Z,5.40
2017-08-15T09:42:47.263Z,6.70
2017-08-15T09:45:16.460Z,7.30
2017-08-15T09:47:42.778Z,5.57
2017-08-15T09:50:09.072Z,6.10
2017-08-15T09:52:36.124Z,5.07
2017-08-15T09:55:03.113Z,6.63
2017-08-15T09:57:29.402Z,5.10
2017-08-15T09:59:55.664Z,4.60
2017-08-15T10:02:21.963Z,5.43
2017-08-15T10:04:48.262Z,5.63
2017-08-15T10:07:14.544Z,5.53
2017-08-15T10:09:41.118Z,6.57
2017-08-15T10:12:07.416Z,5.20
2017-08-15T10:14:33.674Z,4.67
2017-08-15T10:17:00.351Z,7.60
2017-08-15T10:19:27.219Z,5.47
2017-08-15T10:21:53.502Z,5.57
2017-08-15T10:24:19.793Z,4.90
2017-08-15T10:26:46.069Z,5.33
2017-08-15T10:29:12.338Z,6.00
2017-08-15T10:31:40.683Z,6.37
2017-08-15T10:34:06.951Z,5.40
2017-08-15T10:36:33.934Z,5.60
2017-08-15T10:39:00.214Z,5.27
2017-08-15T10:41:26.494Z,4.63
2017-08-15T10:43:52.786Z,5.67
2017-08-15T10:46:19.058Z,4.53
2017-08-15T10:48:45.416Z,4.10
2017-08-15T10:51:11.694Z,5.70
2017-08-15T10:53:38.326Z,4.70
2017-08-15T10:56:04.953Z,4.83
2017-08-15T10:58:31.268Z,4.83
2017-08-15T11:00:57.614Z,4.60
2017-08-15T11:03:24.344Z,4.80
2017-08-15T11:05:51.509Z,5.30
2017-08-15T11:08:17.804Z,9.07
2017-08-15T11:10:44.098Z,4.60
2017-08-15T11:13:10.356Z,5.23
2017-08-15T11:15:36.645Z,4.13
2017-08-15T11:18:03.278Z,4.47
2017-08-15T11:20:29.977Z,5.90
2017-08-15T11:22:56.254Z,5.20
2017-08-15T11:25:22.533Z,4.97
2017-08-15T11:27:48.793Z,4.63
2017-08-15T11:30:15.517Z,3.97
2017-08-15T11:32:41.764Z,4.37
2017-08-15T11:35:08.064Z,4.87
2017-08-15T11:37:34.348Z,4.50
2017-08-15T11:40:00.623Z,5.33
2017-08-15T11:42:26.932Z,4.30
2017-08-15T11:44:53.205Z,4.80
2017-08-15T11:47:20.439Z,5.23
2017-08-15T11:49:46.702Z,3.80
2017-08-15T11:52:13.828Z,4.00
2017-08-15T11:54:40.097Z,3.90
2017-08-15T11:57:06.369Z,4.93
2017-08-15T11:59:32.662Z,4.40
2017-08-15T12:01:59.727Z,4.27
2017-08-15T12:04:26.019Z,4.63
2017-08-15T12:06:52.330Z,4.10
2017-08-15T12:09:18.626Z,5.20
2017-08-15T12:11:44.909Z,4.40
2017-08-15T12:14:11.201Z,4.23
2017-08-15T12:16:38.884Z,3.70
2017-08-15T12:19:05.195Z,4.80
2017-08-15T12:21:31.500Z,4.97
2017-08-15T12:23:57.816Z,3.00
2017-08-15T12:26:24.118Z,4.83
2017-08-15T12:28:50.389Z,3.70
2017-08-15T12:31:16.719Z,3.20
2017-08-15T12:33:43.036Z,3.23
2017-08-15T12:36:09.306Z,3.57
2017-08-15T12:38:35.588Z,4.03
2017-08-15T12:41:01.838Z,2.93
2017-08-15T12:43:28.129Z,3.40
2017-08-15T12:45:54.432Z,3.37
2017-08-15T12:48:20.730Z,3.83
2017-08-15T12:50:47.011Z,2.53
2017-08-15T12:53:14.003Z,3.20
2017-08-15T12:55:40.294Z,2.73
2017-08-15T12:58:06.970Z,3.00
2017-08-15T13:00:34.085Z,3.57
2017-08-15T13:03:00.406Z,2.70
2017-08-15T13:05:26.725Z,3.00
2017-08-15T13:07:53.365Z,3.00
2017-08-15T13:10:20.025Z,2.90
2017-08-15T13:12:46.283Z,4.60
2017-08-15T13:15:12.562Z,2.80
2017-08-15T13:17:38.905Z,3.27
2017-08-15T13:20:05.558Z,3.70
2017-08-15T13:22:31.848Z,3.63
2017-08-15T13:24:58.494Z,2.93
2017-08-15T13:27:24.808Z,2.73
2017-08-15T13:29:51.049Z,3.37
2017-08-15T13:32:17.732Z,3.77
2017-08-15T13:34:44.049Z,2.57
2017-08-15T13:37:10.395Z,3.50
2017-08-15T13:39:36.711Z,4.23
2017-08-15T13:42:02.989Z,3.43
2017-08-15T13:44:29.291Z,3.87
2017-08-15T13:46:55.611Z,2.97
2017-08-15T13:49:21.926Z,3.00
2017-08-15T13:51:48.216Z,3.50
2017-08-15T13:54:14.507Z,3.40
2017-08-15T13:56:40.783Z,2.80
2017-08-15T13:59:07.096Z,3.80
2017-08-15T14:01:33.427Z,2.97
2017-08-15T14:03:59.745Z,3.50
2017-08-15T14:06:26.063Z,3.07
2017-08-15T14:08:52.378Z,2.97
2017-08-15T14:11:18.680Z,2.50
2017-08-15T14:13:44.979Z,3.40
2017-08-15T14:16:11.320Z,3.17
2017-08-15T14:18:37.613Z,3.07
2017-08-15T14:21:03.911Z,2.87
2017-08-15T14:23:30.218Z,3.07
2017-08-15T14:25:56.812Z,3.10
2017-08-15T14:28:23.097Z,3.40
2017-08-15T14:30:49.385Z,3.20
2017-08-15T14:33:15.699Z,3.40
2017-08-15T14:35:42.005Z,3.20
2017-08-15T14:38:08.290Z,3.13
2017-08-15T14:40:34.588Z,4.87
2017-08-15T14:43:00.911Z,6.40
2017-08-15T14:45:27.227Z,3.33
2017-08-15T14:47:53.566Z,3.30
2017-08-15T14:50:19.858Z,3.30
2017-08-15T14:52:46.542Z,4.10
2017-08-15T14:55:12.855Z,3.40
2017-08-15T14:57:39.185Z,3.30
2017-08-15T15:00:05.887Z,4.23
2017-08-15T15:02:32.201Z,4.00
2017-08-15T15:04:58.492Z,3.67
2017-08-15T15:07:24.823Z,3.03
2017-08-15T15:09:51.131Z,3.90
2017-08-15T15:12:17.430Z,3.40
2017-08-15T15:14:43.717Z,4.57
2017-08-15T15:17:10.517Z,5.60
2017-08-15T15:19:36.813Z,7.03
2017-08-15T15:22:03.147Z,4.97
2017-08-15T15:24:29.486Z,4.17
2017-08-15T15:26:55.783Z,4.10
2017-08-15T15:29:22.109Z,3.93
2017-08-15T15:31:48.412Z,3.83
2017-08-15T15:34:15.150Z,5.80
2017-08-15T15:36:41.440Z,6.33
2017-08-15T15:39:08.171Z,4.37
2017-08-15T15:41:34.535Z,6.23
2017-08-15T15:44:00.843Z,4.50
2017-08-15T15:46:27.140Z,4.93
2017-08-15T15:48:53.433Z,6.30
2017-08-15T15:51:20.130Z,6.00
2017-08-15T15:53:46.427Z,5.90
2017-08-15T15:56:12.726Z,7.00
2017-08-15T15:58:39.398Z,5.27
2017-08-15T16:01:06.104Z,6.73
2017-08-15T16:03:32.404Z,4.97
2017-08-15T16:05:58.684Z,7.67
2017-08-15T16:08:24.962Z,7.50
2017-08-15T16:10:51.238Z,4.97
2017-08-15T16:13:17.530Z,3.93
2017-08-15T16:15:45.038Z,6.07
2017-08-15T16:18:11.351Z,4.43
2017-08-15T16:20:37.661Z,4.00
2017-08-15T16:23:03.945Z,5.90
2017-08-15T16:25:30.250Z,7.10
2017-08-15T16:27:56.525Z,4.97
2017-08-15T16:30:22.798Z,4.83
2017-08-15T16:32:49.050Z,4.73
2017-08-15T16:35:16.300Z,5.33
2017-08-15T16:37:42.570Z,4.77
2017-08-15T16:40:08.873Z,4.87
2017-08-15T16:42:35.337Z,4.97
2017-08-15T16:45:02.068Z,4.43
2017-08-15T16:47:28.384Z,4.90
2017-08-15T16:49:54.720Z,5.43
2017-08-15T16:52:21.689Z,7.13
2017-08-15T16:54:48.981Z,7.00
2017-08-15T16:57:15.583Z,4.20
2017-08-15T16:59:42.706Z,6.30
2017-08-15T17:02:09.003Z,4.10
2017-08-15T17:04:35.322Z,4.43
2017-08-15T17:07:01.633Z,4.50
2017-08-15T17:09:27.946Z,7.80
2017-08-15T17:11:54.236Z,5.00
2017-08-15T17:14:20.530Z,5.10
2017-08-15T17:16:46.817Z,5.53
2017-08-15T17:19:13.401Z,6.90
2017-08-15T17:21:39.701Z,5.03
2017-08-15T17:24:05.983Z,5.57
2017-08-15T17:26:32.305Z,8.23
2017-08-15T17:28:58.574Z,7.07
2017-08-15T17:31:25.565Z,6.77
2017-08-15T17:33:51.876Z,7.07
2017-08-15T17:36:18.567Z,8.47
2017-08-15T17:38:44.851Z,7.60
2017-08-15T17:41:11.279Z,8.53
2017-08-15T17:43:37.542Z,8.83
2017-08-15T17:46:03.865Z,7.60
2017-08-15T17:48:30.153Z,6.80
2017-08-15T17:50:56.455Z,6.60
2017-08-15T17:53:22.804Z,9.53
2017-08-15T17:55:49.093Z,7.93
2017-08-15T17:58:15.404Z,6.77
2017-08-15T18:00:41.745Z,9.50
2017-08-15T18:03:08.088Z,12.33
2017-08-15T18:05:34.360Z,10.50
2017-08-15T18:08:02.038Z,10.37
2017-08-15T18:10:28.392Z,8.30
2017-08-15T18:12:55.662Z,8.90
2017-08-15T18:15:21.963Z,8.53
2017-08-15T18:17:48.887Z,13.53
2017-08-15T18:20:15.560Z,13.30
2017-08-15T18:22:42.885Z,15.10
2017-08-15T18:25:09.466Z,20.00
2017-08-15T18:27:37.324Z,10.87
2017-08-15T18:30:03.622Z,24.23
2017-08-15T18:32:29.983Z,357.03
2017-08-15T18:34:57.506Z,308.00
2017-08-15T18:37:23.827Z,416.93
2017-08-15T18:39:50.171Z,374.97
2017-08-15T18:42:17.450Z,156.83
2017-08-15T18:44:44.701Z,302.83
2017-08-15T18:47:11.007Z,156.90
2017-08-15T18:49:37.626Z,120.60
2017-08-15T18:52:04.362Z,66.60
2017-08-15T18:54:30.659Z,68.03
2017-08-15T18:56:56.950Z,281.20
2017-08-15T18:59:23.345Z,389.40
2017-08-15T19:01:50.449Z,231.00
2017-08-15T19:04:16.782Z,336.60
2017-08-15T19:06:43.059Z,279.67
2017-08-15T19:09:09.435Z,6.37
2017-08-15T19:11:35.763Z,46.40
2017-08-15T19:14:04.028Z,315.33
2017-08-15T19:16:30.424Z,363.00
2017-08-15T19:18:56.716Z,442.07
2017-08-15T19:21:23.899Z,450.47
2017-08-15T19:23:51.131Z,628.70
2017-08-15T19:26:17.470Z,357.40
2017-08-15T19:28:44.330Z,457.40
2017-08-15T19:31:10.757Z,516.73
2017-08-15T19:33:37.060Z,6.53
2017-08-15T19:36:04.105Z,35.70
2017-08-15T19:38:30.419Z,5.33
2017-08-15T19:40:57.469Z,8.47
2017-08-15T19:43:23.777Z,5.43
2017-08-15T19:45:50.183Z,5.87
2017-08-15T19:48:16.826Z,6.93
2017-08-15T19:50:43.128Z,7.30
2017-08-15T19:53:09.448Z,5.60
2017-08-15T19:55:35.765Z,6.20
2017-08-15T19:58:02.253Z,6.40
2017-08-15T20:00:28.595Z,6.23
2017-08-15T20:02:55.410Z,5.60
2017-08-15T20:05:21.992Z,4.93
2017-08-15T20:07:48.444Z,5.00
2017-08-15T20:10:15.817Z,6.20
2017-08-15T20:12:42.111Z,5.37
2017-08-15T20:15:08.429Z,6.70
2017-08-15T20:17:34.715Z,7.50
2017-08-15T20:20:01.478Z,5.60
2017-08-15T20:22:28.365Z,5.00
2017-08-15T20:24:54.987Z,5.43
2017-08-15T20:27:21.387Z,6.03
2017-08-15T20:29:47.754Z,6.93
2017-08-15T20:32:14.121Z,7.00
2017-08-15T20:34:40.444Z,6.60
2017-08-15T20:37:06.731Z,7.97
2017-08-15T20:39:33.018Z,5.83
2017-08-15T20:42:00.567Z,8.13
2017-08-15T20:44:26.870Z,6.60
2017-08-15T20:46:53.148Z,6.70
2017-08-15T20:49:19.452Z,8.57
2017-08-15T20:51:46.162Z,6.90
2017-08-15T20:54:12.532Z,8.43
2017-08-15T20:56:38.868Z,7.37
2017-08-15T20:59:05.207Z,9.00
2017-08-15T21:01:31.510Z,9.90
2017-08-15T21:03:57.866Z,9.50
2017-08-15T21:06:24.188Z,8.20
2017-08-15T21:08:50.519Z,8.43
2017-08-15T21:11:16.781Z,10.23
2017-08-15T21:13:43.054Z,9.10
2017-08-15T21:16:09.632Z,9.20
2017-08-15T21:18:35.909Z,9.27
2017-08-15T21:21:02.206Z,10.20
2017-08-15T21:23:28.601Z,8.17
2017-08-15T21:25:54.927Z,8.23
2017-08-15T21:28:24.044Z,8.63
2017-08-15T21:30:50.342Z,7.67
2017-08-15T21:33:16.650Z,8.27
2017-08-15T21:35:42.912Z,8.20
2017-08-15T21:38:10.153Z,9.40
2017-08-15T21:40:36.917Z,8.50
2017-08-15T21:43:03.240Z,8.37
2017-08-15T21:45:29.585Z,6.80
2017-08-15T21:47:55.861Z,8.60
2017-08-15T21:50:23.029Z,8.33
2017-08-15T21:52:49.902Z,9.50
2017-08-15T21:55:17.124Z,8.60
2017-08-15T21:57:45.180Z,8.43
2017-08-15T22:00:11.997Z,8.60
2017-08-15T22:02:38.871Z,9.50
2017-08-15T22:05:05.173Z,9.23
2017-08-15T22:07:31.832Z,8.23
2017-08-15T22:09:58.098Z,8.97
2017-08-15T22:12:24.400Z,9.17
2017-08-15T22:14:50.694Z,8.57
2017-08-15T22:17:17.394Z,8.13
2017-08-15T22:19:43.706Z,8.20
2017-08-15T22:22:09.993Z,7.00
2017-08-15T22:24:36.662Z,6.77
2017-08-15T22:27:02.944Z,6.90
2017-08-15T22:29:30.123Z,6.10
2017-08-15T22:31:56.773Z,9.23
2017-08-15T22:34:23.040Z,6.80
2017-08-15T22:36:49.346Z,6.20
2017-08-15T22:39:15.615Z,8.70
2017-08-15T22:41:41.898Z,6.30
2017-08-15T22:44:08.175Z,8.50
2017-08-15T22:46:34.468Z,7.17
2017-08-15T22:49:00.758Z,7.00
2017-08-15T22:51:27.439Z,7.00
2017-08-15T22:53:53.710Z,6.80
2017-08-15T22:56:20.012Z,6.53
2017-08-15T22:58:46.291Z,7.30
2017-08-15T23:01:12.980Z,6.90
2017-08-15T23:03:39.259Z,6.40
2017-08-15T23:06:05.561Z,8.20
2017-08-15T23:08:31.834Z,7.90
2017-08-15T23:10:58.162Z,7.10
2017-08-15T23:13:24.471Z,8.93
2017-08-15T23:15:51.623Z,6.27
2017-08-15T23:18:17.900Z,8.03
2017-08-15T23:20:44.210Z,7.30
2017-08-15T23:23:10.499Z,7.43
2017-08-15T23:25:36.774Z,10.57
2017-08-15T23:28:03.070Z,7.90
2017-08-15T23:30:29.353Z,6.80
2017-08-15T23:32:55.616Z,11.60
2017-08-15T23:35:21.889Z,6.93
2017-08-15T23:37:48.290Z,7.73
2017-08-15T23:40:14.707Z,7.83
2017-08-15T23:42:42.850Z,8.00
2017-08-15T23:45:09.174Z,8.27
2017-08-15T23:47:35.435Z,7.40
2017-08-15T23:50:01.712Z,7.00
2017-08-15T23:52:27.981Z,7.20
2017-08-15T23:54:54.278Z,7.83
2017-08-15T23:57:20.579Z,6.10
2017-08-15T23:59:46.882Z,7.20
